Hyannis, MA

7:46 PM EST on February 23, 2017 (GMT -0500)
Barnstable Municipal-Boardman-Polando Field | | Change Station

Elev 52 ft 41.67 °N, 70.28 °W | Updated 50 minutes ago

Overcast
Overcast
48 °F
Feels Like 48 °F
N
16
Wind Variable Wind from SW

Today
High -- | Low -- °F
--% Chance of Precip.
Yesterday
High -- | Low -- °F
Precip. -- in
Pressure 29.87 in
Visibility 10.0 miles
Clouds Overcast 800 ft
Dew Point 46 °F
Humidity 93%
Rainfall 0.00 in
Snow Depth Not available.
6:24 AM 5:24 PM
Waning Crescent, 8% visible
METAR KHYA 232356Z 22014KT 10SM OVC008 09/08 A2987 RMK AO2 SLP114 T00890078 10117 20078 53019
Pressure 29.87 in
Visibility 10.0 miles
Clouds Overcast 800 ft
Dew Point 46 °F
Humidity 93%
Rainfall 0.00 in
Snow Depth Not available.
6:24 AM 5:24 PM
Waning Crescent, 8% visible
METAR KHYA 232356Z 22014KT 10SM OVC008 09/08 A2987 RMK AO2 SLP114 T00890078 10117 20078 53019

Get Your Daily Forecast Email!

Thanks for signing up!

Be on the lookout for a verification email in your inbox.

You'll start receiving the daily forecast at 8 AM.

×

10-Day Weather Forecast

Almanac

Astronomy

Feb. 23, 2017 Rise Set
Actual Time
Civil Twilight
Nautical Twilight
Astronomical Twilight
Moon
Length of Visible Light
Length of Day
Tomorrow will be .
, % of the Moon is Illuminated

Today's Extremes

State Highs State Lows

Community

WunderPhotos

Upload Photos

1,962,540 photos uploaded!

WunderBlog® & News

Nearby

Air Quality

  Air Quality AQ Index Pollutant
Not available.

Snow Depth

Station Depth Elevation

Earthquake Activity

City Distance Mag. Time & Date
Minimum magnitude displayed is 2.5.

Coastal Water Temperatures

Place Temperature

Stations

Nearby Weather Stations

Station Location Temp. Windchill Dew Point Humidity Wind Precip. Elev Updated Type
                   

Watches & Warnings

There are currently no watches in effect.